Time;durP1;ratioP1;P1;durP2;ratioP2;P2;SDS_P1;SDS_P2;PMS_P1;PMS_P2;Temp;Humidity;BMP_temperature;BMP_pressure;BME280_temperature;BME280_humidity;BME280_pressure;Samples;Min_cycle;Max_cycle;Signal;HPM_P1;HPM_P2
2021/11/22 06:50:21;;;;;;;3.67;2.95;;;;;;;;;;10481474;28;20448;-83
2021/11/22 06:55:22;;;;;;;;;;;;;;;;;;10476857;28;20029;-83
2021/11/22 07:00:27;;;;;;;2.30;2.03;;;;;;;;;;10461824;28;19948;-84
2021/11/22 07:05:29;;;;;;;2.08;1.40;;;;;;;;;;10462187;28;20028;-83
2021/11/22 07:10:30;;;;;;;2.15;1.95;;;;;;;;;;10460611;28;20035;-84
2021/11/22 07:15:35;;;;;;;2.10;1.70;;;;;;;;;;10464386;28;20454;-83
2021/11/22 07:20:36;;;;;;;1.90;1.30;;;;;;;;;;10465452;28;20078;-83
2021/11/22 07:25:37;;;;;;;2.50;1.70;;;;;;;;;;10464799;28;20399;-83
2021/11/22 07:30:38;;;;;;;1.90;1.65;;;;;;;;;;10464804;28;20128;-84
2021/11/22 07:35:39;;;;;;;1.90;1.15;;;;;;;;;;10461498;28;20025;-83
2021/11/22 07:40:41;;;;;;;2.70;1.08;;;;;;;;;;10466011;28;20033;-84
2021/11/22 07:45:42;;;;;;;1.67;1.20;;;;;;;;;;10467923;28;20084;-85
2021/11/22 07:50:43;;;;;;;2.20;1.80;;;;;;;;;;10469496;28;20083;-84
2021/11/22 07:55:46;;;;;;;1.42;1.15;;;;;;;;;;10470824;28;20033;-85
2021/11/22 08:00:47;;;;;;;2.28;1.75;;;;;;;;;;10432676;28;20129;-85
2021/11/22 08:05:52;;;;;;;;;;;;;;;;;;10424238;28;20032;-83
2021/11/22 08:16:14;;;;;;;3.22;2.03;;;;;;;;;;10406643;28;20039;-83
2021/11/22 08:21:16;;;;;;;;;;;;;;;;;;10433283;28;20032;-84
2021/11/22 08:49:32;;;;;;;3.20;1.35;;;;;;;;;;10433860;28;20075;-87
2021/11/22 09:00:50;;;;;;;3.08;1.45;;;;;;;;;;10463788;28;20053;-87
2021/11/22 09:17:58;;;;;;;3.97;2.58;;;;;;;;;;10299546;28;20027;-86
2021/11/22 09:34:59;;;;;;;3.30;1.88;;;;;;;;;;10364077;28;20073;-87
2021/11/22 09:40:22;;;;;;;4.53;2.22;;;;;;;;;;10388282;28;20040;-86
2021/11/22 09:45:27;;;;;;;3.42;1.73;;;;;;;;;;10426096;28;20025;-86
2021/11/22 09:50:29;;;;;;;4.47;2.55;;;;;;;;;;10428489;28;20077;-86
2021/11/22 09:55:31;;;;;;;3.53;1.80;;;;;;;;;;10430815;28;20514;-86
2021/11/22 10:00:37;;;;;;;3.45;2.65;;;;;;;;;;10429632;28;20029;-86
2021/11/22 10:05:40;;;;;;;4.05;2.47;;;;;;;;;;10435685;28;20038;-85
2021/11/22 10:10:43;;;;;;;2.88;1.55;;;;;;;;;;10435387;28;20029;-85
2021/11/22 10:15:44;;;;;;;3.58;1.88;;;;;;;;;;10436226;28;20036;-86
2021/11/22 10:20:46;;;;;;;5.07;1.83;;;;;;;;;;10437190;28;20029;-86
2021/11/22 10:25:46;;;;;;;2.47;1.30;;;;;;;;;;10437746;28;20029;-86
2021/11/22 10:30:47;;;;;;;;;;;;;;;;;;10437392;28;20029;-85
2021/11/22 10:35:50;;;;;;;2.45;1.45;;;;;;;;;;10432887;28;19916;-86
2021/11/22 10:41:01;;;;;;;3.60;1.50;;;;;;;;;;10436736;28;20017;-82
2021/11/22 10:46:05;;;;;;;3.50;1.55;;;;;;;;;;10442693;28;20044;-84
2021/11/22 10:51:12;;;;;;;4.20;2.22;;;;;;;;;;10429872;28;20123;-86
2021/11/22 10:56:18;;;;;;;2.05;1.02;;;;;;;;;;10426691;28;20121;-82
2021/11/22 11:01:19;;;;;;;4.53;0.90;;;;;;;;;;10422639;28;20108;-84
2021/11/22 11:06:20;;;;;;;;;;;;;;;;;;10428920;28;20029;-85
2021/11/22 11:11:25;;;;;;;4.45;1.50;;;;;;;;;;10431202;28;19905;-84
2021/11/22 11:16:28;;;;;;;1.98;1.50;;;;;;;;;;10430217;28;20045;-85
2021/11/22 11:21:30;;;;;;;4.07;1.23;;;;;;;;;;10431750;28;20028;-84
2021/11/22 11:26:32;;;;;;;2.30;1.20;;;;;;;;;;10427520;28;20060;-84
2021/11/22 11:31:35;;;;;;;44.25;29.15;;;;;;;;;;10425252;28;20053;-84
2021/11/22 11:36:49;;;;;;;2.88;1.80;;;;;;;;;;10437667;28;20045;-84
2021/11/22 11:42:08;;;;;;;3.20;1.30;;;;;;;;;;10438190;28;20452;-84
2021/11/22 11:47:18;;;;;;;3.17;1.50;;;;;;;;;;10436739;28;20183;-83
2021/11/22 11:52:30;;;;;;;2.50;1.40;;;;;;;;;;10434889;28;20030;-86
2021/11/22 11:57:32;;;;;;;2.95;1.73;;;;;;;;;;10433631;28;20509;-86
2021/11/22 12:02:34;;;;;;;2.78;2.10;;;;;;;;;;10432545;28;20041;-86
2021/11/22 12:07:46;;;;;;;3.42;1.60;;;;;;;;;;10439594;28;20053;-84
2021/11/22 12:12:52;;;;;;;12.60;8.70;;;;;;;;;;10432109;28;20033;-84
2021/11/22 12:18:03;;;;;;;3.28;1.90;;;;;;;;;;10431845;28;20039;-84
2021/11/22 12:23:06;;;;;;;3.30;1.73;;;;;;;;;;10431027;28;20025;-84
2021/11/22 12:28:22;;;;;;;2.72;1.80;;;;;;;;;;10431719;28;20107;-87
2021/11/22 12:33:24;;;;;;;2.58;1.80;;;;;;;;;;10429060;28;20083;-87
2021/11/22 12:38:26;;;;;;;5.13;2.28;;;;;;;;;;10428472;28;20033;-87
2021/11/22 12:43:36;;;;;;;6.22;5.00;;;;;;;;;;10430549;28;20083;-88
2021/11/22 12:48:39;;;;;;;2.47;1.45;;;;;;;;;;10432808;28;20037;-87
2021/11/22 12:54:00;;;;;;;2.30;1.55;;;;;;;;;;10452118;28;20029;-87
2021/11/22 12:59:05;;;;;;;3.05;1.77;;;;;;;;;;10427469;28;20039;-89
2021/11/22 13:04:06;;;;;;;2.35;1.55;;;;;;;;;;10427203;28;20037;-85
2021/11/22 13:09:10;;;;;;;2.15;1.42;;;;;;;;;;10445545;28;20022;-85
2021/11/22 13:14:15;;;;;;;2.85;1.50;;;;;;;;;;10434670;28;20077;-86
2021/11/22 13:19:16;;;;;;;2.40;1.65;;;;;;;;;;10426535;28;20025;-85
2021/11/22 13:24:17;;;;;;;;;;;;;;;;;;10429796;28;20029;-86
2021/11/22 13:29:20;;;;;;;2.28;1.50;;;;;;;;;;10426747;28;19911;-86
2021/11/22 13:34:24;;;;;;;3.00;1.80;;;;;;;;;;10426840;28;20030;-87
2021/11/22 13:39:33;;;;;;;2.03;1.30;;;;;;;;;;10463662;28;20029;-84
2021/11/22 13:44:36;;;;;;;2.22;1.40;;;;;;;;;;10438845;28;20072;-86
2021/11/22 13:49:38;;;;;;;1.83;1.20;;;;;;;;;;10429263;28;20060;-87
2021/11/22 13:54:39;;;;;;;4.28;2.80;;;;;;;;;;10426233;28;20029;-87
2021/11/22 13:59:42;;;;;;;2.92;1.80;;;;;;;;;;10426745;28;20033;-86
2021/11/22 14:04:47;;;;;;;2.72;1.70;;;;;;;;;;10428236;28;20051;-85
2021/11/22 14:09:51;;;;;;;3.13;2.13;;;;;;;;;;10455104;28;20041;-85
2021/11/22 14:14:54;;;;;;;3.40;2.35;;;;;;;;;;10413740;28;20460;-86
2021/11/22 14:20:05;;;;;;;4.28;2.90;;;;;;;;;;10430875;28;20041;-84
2021/11/22 14:25:18;;;;;;;5.55;3.55;;;;;;;;;;10429747;28;20065;-80
2021/11/22 14:30:46;;;;;;;3.78;2.90;;;;;;;;;;10426831;28;20029;-84
2021/11/22 14:36:00;;;;;;;2.95;2.15;;;;;;;;;;10430092;28;20187;-83
2021/11/22 14:41:07;;;;;;;3.58;2.65;;;;;;;;;;10428108;28;20037;-83
2021/11/22 14:46:16;;;;;;;4.25;2.75;;;;;;;;;;10433675;28;20037;-82
2021/11/22 14:51:19;;;;;;;3.85;2.58;;;;;;;;;;10447157;28;20478;-84
2021/11/22 14:56:42;;;;;;;5.07;2.83;;;;;;;;;;10450189;28;20048;-84
2021/11/22 15:02:04;;;;;;;3.13;2.05;;;;;;;;;;10425767;28;20472;-83
2021/11/22 15:07:18;;;;;;;3.42;2.60;;;;;;;;;;10424020;28;20072;-85
2021/11/22 15:12:24;;;;;;;3.53;2.53;;;;;;;;;;10430500;28;20036;-83
2021/11/22 15:17:26;;;;;;;3.33;2.20;;;;;;;;;;10436991;28;20037;-85
2021/11/22 15:22:29;;;;;;;2.85;2.00;;;;;;;;;;10433551;28;20439;-83
2021/11/22 15:27:30;;;;;;;3.10;2.08;;;;;;;;;;10433560;28;20189;-83
2021/11/22 15:32:32;;;;;;;4.47;2.42;;;;;;;;;;10434361;28;20029;-83
2021/11/22 15:37:33;;;;;;;3.47;1.98;;;;;;;;;;10432353;28;20037;-83
2021/11/22 15:42:35;;;;;;;;;;;;;;;;;;10434304;28;20026;-83
2021/11/22 15:47:54;;;;;;;3.38;1.85;;;;;;;;;;10434347;28;19913;-83
2021/11/22 15:52:55;;;;;;;;;;;;;;;;;;10431930;28;20033;-83
2021/11/22 15:57:56;;;;;;;3.50;2.38;;;;;;;;;;10431229;28;19958;-83
2021/11/22 16:02:57;;;;;;;;;;;;;;;;;;10431765;28;20128;-82
2021/11/22 16:07:58;;;;;;;3.60;2.35;;;;;;;;;;10445141;28;19928;-83
2021/11/22 16:12:59;;;;;;;;;;;;;;;;;;10436872;28;20026;-83
2021/11/22 16:18:00;;;;;;;3.78;2.75;;;;;;;;;;10437013;28;19913;-83
2021/11/22 16:23:01;;;;;;;;;;;;;;;;;;10435691;28;20018;-83
2021/11/22 16:28:11;;;;;;;3.90;2.35;;;;;;;;;;10438491;28;20063;-83
2021/11/22 16:33:13;;;;;;;5.53;2.47;;;;;;;;;;10435886;28;20097;-84
2021/11/22 16:38:15;;;;;;;4.55;2.40;;;;;;;;;;10436831;28;20026;-85
2021/11/22 16:43:17;;;;;;;3.20;2.15;;;;;;;;;;10436687;28;20044;-83
2021/11/22 16:48:19;;;;;;;3.53;2.78;;;;;;;;;;10451458;28;20034;-84
2021/11/22 16:53:20;;;;;;;5.07;2.90;;;;;;;;;;10414171;28;20430;-83
2021/11/22 16:58:24;;;;;;;3.42;2.33;;;;;;;;;;10419805;28;20555;-83
2021/11/22 17:03:25;;;;;;;4.68;3.30;;;;;;;;;;10440499;28;20040;-82
2021/11/22 17:08:26;;;;;;;;;;;;;;;;;;10442774;28;20364;-83
2021/11/22 17:13:27;;;;;;;4.32;3.25;;;;;;;;;;10442641;28;20353;-82
2021/11/22 17:18:40;;;;;;;5.20;2.78;;;;;;;;;;10444020;28;20037;-85
2021/11/22 17:23:41;;;;;;;11.43;7.22;;;;;;;;;;10449401;28;20021;-83
2021/11/22 17:28:42;;;;;;;;;;;;;;;;;;10443111;28;20056;-84
2021/11/22 17:33:43;;;;;;;7.88;6.13;;;;;;;;;;10441694;28;19905;-84
2021/11/22 17:38:44;;;;;;;8.48;6.60;;;;;;;;;;10441232;28;20033;-83
2021/11/22 17:43:45;;;;;;;;;;;;;;;;;;10440265;28;20021;-84
2021/11/22 17:48:46;;;;;;;8.50;6.85;;;;;;;;;;10439245;28;19905;-84
2021/11/22 17:53:47;;;;;;;;;;;;;;;;;;10441305;28;20029;-86
2021/11/22 17:58:48;;;;;;;7.53;5.82;;;;;;;;;;10437697;28;20367;-86
2021/11/22 18:03:51;;;;;;;10.32;7.10;;;;;;;;;;10438986;28;20359;-86
2021/11/22 18:08:52;;;;;;;9.85;7.38;;;;;;;;;;10436764;28;20025;-86
2021/11/22 18:13:53;;;;;;;;;;;;;;;;;;10439193;28;20052;-86
2021/11/22 18:18:54;;;;;;;12.68;8.60;;;;;;;;;;10441132;28;19955;-86
2021/11/22 18:23:55;;;;;;;;;;;;;;;;;;10441816;28;20056;-86
2021/11/22 18:28:56;;;;;;;7.05;6.05;;;;;;;;;;10439518;28;19909;-87
2021/11/22 18:33:57;;;;;;;7.75;5.70;;;;;;;;;;10434384;28;20017;-85
2021/11/22 18:38:58;;;;;;;;;;;;;;;;;;10433778;28;20211;-85
2021/11/22 18:43:59;;;;;;;7.78;5.40;;;;;;;;;;10434742;28;19954;-85
2021/11/22 18:49:00;;;;;;;9.27;5.65;;;;;;;;;;10438708;28;20049;-82
2021/11/22 18:54:01;;;;;;;;;;;;;;;;;;10465153;28;20039;-84
2021/11/22 18:59:03;;;;;;;7.55;6.18;;;;;;;;;;10463378;28;19909;-85
2021/11/22 19:04:04;;;;;;;7.57;5.68;;;;;;;;;;10439931;28;20101;-83
2021/11/22 19:09:05;;;;;;;8.93;6.43;;;;;;;;;;10436643;28;20037;-84
2021/11/22 19:14:07;;;;;;;8.82;6.32;;;;;;;;;;10437104;28;20026;-84
2021/11/22 19:19:09;;;;;;;8.75;6.47;;;;;;;;;;10441518;28;20037;-84
2021/11/22 19:24:12;;;;;;;8.57;6.28;;;;;;;;;;10441971;28;20104;-84
2021/11/22 19:29:16;;;;;;;7.88;6.63;;;;;;;;;;10444834;28;20064;-85
2021/11/22 19:34:18;;;;;;;7.22;5.82;;;;;;;;;;10450126;28;20051;-85
2021/11/22 19:39:19;;;;;;;7.05;5.38;;;;;;;;;;10449325;28;20116;-86
2021/11/22 19:44:20;;;;;;;;;;;;;;;;;;10446388;28;20126;-85
2021/11/22 19:49:22;;;;;;;9.40;7.45;;;;;;;;;;10450737;28;19909;-85
2021/11/22 19:54:27;;;;;;;9.70;7.40;;;;;;;;;;10436699;28;20052;-85
2021/11/22 19:59:30;;;;;;;11.52;9.45;;;;;;;;;;10459054;28;20025;-85
2021/11/22 20:04:32;;;;;;;13.73;10.60;;;;;;;;;;10457489;28;20041;-85
2021/11/22 20:09:42;;;;;;;16.42;11.63;;;;;;;;;;10457414;28;20026;-85
2021/11/22 20:14:48;;;;;;;13.30;10.90;;;;;;;;;;10455517;28;20030;-85
2021/11/22 20:20:18;;;;;;;12.63;10.32;;;;;;;;;;10431914;28;20034;-87
2021/11/22 20:25:23;;;;;;;13.83;10.50;;;;;;;;;;10443941;28;20057;-87
2021/11/22 20:30:27;;;;;;;15.07;11.45;;;;;;;;;;10427866;28;20127;-87
2021/11/22 20:35:28;;;;;;;24.35;17.77;;;;;;;;;;10448501;28;20091;-87
2021/11/22 20:40:29;;;;;;;28.73;21.08;;;;;;;;;;10445421;28;20400;-86
2021/11/22 20:45:30;;;;;;;;;;;;;;;;;;10447189;28;20057;-87
2021/11/22 20:50:33;;;;;;;23.52;18.17;;;;;;;;;;10445490;28;20287;-84
2021/11/22 20:55:34;;;;;;;22.45;17.17;;;;;;;;;;10457386;28;20164;-87
2021/11/22 21:00:37;;;;;;;20.35;15.98;;;;;;;;;;10458573;28;20049;-84
2021/11/22 21:05:42;;;;;;;18.30;14.98;;;;;;;;;;10444303;28;20041;-85
2021/11/22 21:10:43;;;;;;;18.58;14.13;;;;;;;;;;10428784;28;20059;-84
